Time;durP1;ratioP1;P1;durP2;ratioP2;P2;SDS_P1;SDS_P2;PMS_P1;PMS_P2;Temp;Humidity;BMP_temperature;BMP_pressure;BME280_temperature;BME280_humidity;BME280_pressure;Samples;Min_cycle;Max_cycle;Signal;HPM_P1;HPM_P2
2023/10/15 00:01:18;;;;;;;9.93;2.83;;;;;;;11.38;100.00;98239.75;5164248;27;20065;-58
2023/10/15 00:03:46;;;;;;;12.02;2.97;;;;;;;11.41;100.00;98236.22;5164259;27;20228;-58
2023/10/15 00:06:12;;;;;;;12.63;2.97;;;;;;;11.48;100.00;98238.19;5164214;27;20062;-54
2023/10/15 00:08:38;;;;;;;30.75;5.05;;;;;;;11.48;100.00;98243.66;5164309;27;20046;-60
2023/10/15 00:11:12;;;;;;;21.17;4.20;;;;;;;11.54;100.00;98242.09;5164092;27;20109;-59
2023/10/15 00:13:38;;;;;;;25.63;4.75;;;;;;;11.49;100.00;98253.47;5161841;27;20469;-54
2023/10/15 00:16:05;;;;;;;29.83;4.63;;;;;;;11.49;100.00;98231.50;5160696;27;20061;-58
2023/10/15 00:18:31;;;;;;;29.38;5.03;;;;;;;11.43;100.00;98233.88;5160918;27;20062;-59
2023/10/15 00:21:11;;;;;;;6.68;2.20;;;;;;;11.48;100.00;98235.44;5160637;27;20050;-57
2023/10/15 00:23:38;;;;;;;33.20;3.95;;;;;;;11.40;100.00;98253.88;5160403;27;20090;-57
2023/10/15 00:26:04;;;;;;;37.08;6.57;;;;;;;11.40;100.00;98242.13;5160523;27;20058;-60
2023/10/15 00:28:31;;;;;;;37.63;7.78;;;;;;;11.44;100.00;98242.88;5160320;27;20424;-57
2023/10/15 00:30:57;;;;;;;22.38;4.97;;;;;;;11.47;100.00;98253.88;5160486;27;20370;-58
2023/10/15 00:33:23;;;;;;;13.52;3.13;;;;;;;11.40;100.00;98244.84;5160441;27;20050;-59
2023/10/15 00:35:53;;;;;;;10.23;2.30;;;;;;;11.42;100.00;98224.06;5160920;27;20056;-57
2023/10/15 00:38:20;;;;;;;9.05;2.58;;;;;;;11.40;100.00;98228.41;5160196;27;20051;-60
2023/10/15 00:40:51;;;;;;;20.88;3.65;;;;;;;11.46;100.00;98224.84;5159893;27;20427;-58
2023/10/15 00:43:18;;;;;;;4.30;2.00;;;;;;;11.16;100.00;98225.25;5160111;27;20066;-54
2023/10/15 00:45:45;;;;;;;45.50;7.32;;;;;;;11.29;100.00;98212.69;5159975;27;20404;-59
2023/10/15 00:48:22;;;;;;;55.40;9.05;;;;;;;11.30;100.00;98194.28;5160550;27;20061;-58
2023/10/15 00:50:49;;;;;;;23.70;4.90;;;;;;;11.35;100.00;98190.34;5160163;27;20058;-59
2023/10/15 00:53:22;;;;;;;10.43;2.55;;;;;;;11.33;100.00;98193.50;5160131;27;20047;-60
2023/10/15 00:55:50;;;;;;;5.20;2.90;;;;;;;11.26;100.00;98199.78;5159925;27;20416;-58
2023/10/15 00:58:22;;;;;;;37.42;7.32;;;;;;;11.14;100.00;98180.97;5160278;27;20329;-54
2023/10/15 01:00:53;;;;;;;23.30;5.03;;;;;;;10.96;100.00;98175.50;5159851;27;20429;-59
2023/10/15 01:03:30;;;;;;;16.38;3.40;;;;;;;11.10;100.00;98158.25;5160209;27;20408;-58
2023/10/15 01:06:04;;;;;;;10.80;2.85;;;;;;;11.10;100.00;98151.97;5160008;27;20047;-59
2023/10/15 01:08:35;;;;;;;7.18;2.33;;;;;;;11.13;100.00;98156.66;5159909;27;20198;-57
2023/10/15 01:11:11;;;;;;;8.40;1.85;;;;;;;11.15;100.00;98168.81;5159860;27;20115;-59
2023/10/15 01:13:38;;;;;;;6.85;2.50;;;;;;;11.23;100.00;98186.84;5159715;27;20058;-58
2023/10/15 01:16:08;;;;;;;10.75;2.17;;;;;;;11.20;100.00;98208.81;5160002;27;20047;-60
2023/10/15 01:18:35;;;;;;;9.85;2.35;;;;;;;11.19;100.00;98218.97;5159455;27;20376;-57
2023/10/15 01:21:04;;;;;;;11.32;3.05;;;;;;;11.18;100.00;98219.38;5159851;27;20328;-59
2023/10/15 01:23:32;;;;;;;9.02;3.38;;;;;;;11.04;100.00;98217.41;5159435;27;20051;-59
2023/10/15 01:26:00;;;;;;;16.60;3.08;;;;;;;11.09;100.00;98200.53;5159485;27;20046;-59
2023/10/15 01:28:36;;;;;;;18.50;2.78;;;;;;;10.79;100.00;98190.72;5159345;27;20050;-56
2023/10/15 01:31:05;;;;;;;7.38;2.20;;;;;;;10.77;100.00;98165.69;5159345;27;20137;-56
2023/10/15 01:33:36;;;;;;;14.35;2.33;;;;;;;11.03;100.00;98152.78;5159375;27;20082;-59
2023/10/15 01:36:06;;;;;;;7.00;2.38;;;;;;;11.02;100.00;98151.97;5159415;27;20089;-53
2023/10/15 01:38:34;;;;;;;9.45;2.53;;;;;;;10.96;100.00;98177.44;5159582;27;20114;-58
2023/10/15 01:41:04;;;;;;;11.15;2.72;;;;;;;10.70;100.00;98173.13;5159016;27;20046;-59
2023/10/15 01:43:32;;;;;;;7.00;2.20;;;;;;;10.72;100.00;98162.53;5159496;27;20327;-58
2023/10/15 01:46:00;;;;;;;11.00;3.08;;;;;;;10.76;100.00;98177.81;5159047;27;20058;-59
2023/10/15 01:48:30;;;;;;;14.23;2.50;;;;;;;10.69;100.00;98198.94;5159544;27;20387;-59
2023/10/15 01:51:04;;;;;;;4.88;1.90;;;;;;;10.69;100.00;98196.97;5158962;27;20050;-56
2023/10/15 01:53:34;;;;;;;9.02;2.60;;;;;;;10.81;100.00;98196.63;5159426;27;20458;-55
2023/10/15 01:56:02;;;;;;;10.52;2.22;;;;;;;10.59;100.00;98195.00;5159063;27;20412;-57
2023/10/15 01:58:32;;;;;;;5.00;2.38;;;;;;;10.63;100.00;98187.59;5159005;27;20054;-57
2023/10/15 02:01:08;;;;;;;8.52;2.47;;;;;;;10.83;100.00;98182.53;5159029;27;20050;-60
2023/10/15 02:03:35;;;;;;;22.45;3.35;;;;;;;10.60;100.00;98188.38;5158886;27;20046;-59
2023/10/15 02:06:05;;;;;;;4.78;1.70;;;;;;;10.71;100.00;98191.91;5159202;27;20046;-56
2023/10/15 02:08:31;;;;;;;5.65;1.70;;;;;;;10.63;100.00;98200.50;5158731;27;20057;-60
2023/10/15 02:10:57;;;;;;;14.13;2.35;;;;;;;10.26;100.00;98174.97;5159153;27;20141;-57
2023/10/15 02:13:23;;;;;;;8.95;2.00;;;;;;;10.67;100.00;98171.94;5158612;27;20089;-56
2023/10/15 02:15:50;;;;;;;15.73;3.15;;;;;;;10.66;100.00;98191.50;5158850;27;20248;-57
2023/10/15 02:18:17;;;;;;;16.67;3.50;;;;;;;10.79;100.00;98198.16;5158872;27;20051;-58
2023/10/15 02:20:45;;;;;;;9.00;2.25;;;;;;;10.69;100.00;98193.47;5158610;27;20054;-59
2023/10/15 02:23:11;;;;;;;8.52;2.38;;;;;;;10.49;100.00;98202.03;5158835;27;20089;-61
2023/10/15 02:25:44;;;;;;;11.65;2.20;;;;;;;10.74;100.00;98188.38;5158892;27;20067;-58
2023/10/15 02:28:10;;;;;;;9.17;2.73;;;;;;;10.60;100.00;98202.84;5158860;27;20043;-58
2023/10/15 02:30:40;;;;;;;24.35;4.90;;;;;;;10.68;100.00;98214.59;5158514;27;20089;-61
2023/10/15 02:33:07;;;;;;;12.63;2.80;;;;;;;10.67;100.00;98206.78;5158781;27;20138;-61
2023/10/15 02:35:39;;;;;;;7.65;2.28;;;;;;;10.52;100.00;98211.44;5158309;27;20057;-58
2023/10/15 02:38:10;;;;;;;8.18;2.75;;;;;;;10.63;100.00;98187.59;5157834;27;20118;-57
2023/10/15 02:40:56;;;;;;;10.95;2.35;;;;;;;10.55;100.00;98202.44;5158328;27;20062;-61
2023/10/15 02:43:24;;;;;;;5.95;2.05;;;;;;;10.53;100.00;98207.50;5158400;27;20046;-55
2023/10/15 02:45:50;;;;;;;11.18;3.75;;;;;;;10.63;100.00;98201.28;5158653;27;20408;-56
2023/10/15 02:48:20;;;;;;;6.90;2.28;;;;;;;10.53;100.00;98216.53;5158142;27;20047;-57
2023/10/15 02:50:58;;;;;;;9.05;2.70;;;;;;;10.50;100.00;98219.28;5158504;27;20110;-60
2023/10/15 02:53:24;;;;;;;12.20;2.72;;;;;;;10.46;100.00;98218.47;5158113;27;20051;-59
2023/10/15 02:55:50;;;;;;;11.90;2.78;;;;;;;10.30;100.00;98225.06;5158455;27;20089;-53
2023/10/15 02:58:17;;;;;;;26.13;5.57;;;;;;;10.44;100.00;98218.06;5158025;27;20104;-55
2023/10/15 03:00:43;;;;;;;10.18;2.65;;;;;;;10.50;100.00;98243.94;5157809;27;20396;-59
2023/10/15 03:03:09;;;;;;;5.10;2.50;;;;;;;10.40;100.00;98253.69;5158189;27;20058;-59
2023/10/15 03:05:40;;;;;;;13.75;3.78;;;;;;;10.18;100.00;98241.81;5158153;27;20050;-59
2023/10/15 03:08:06;;;;;;;8.30;2.42;;;;;;;10.17;100.00;98210.13;5157967;27;20047;-61
2023/10/15 03:10:45;;;;;;;23.13;4.70;;;;;;;10.28;100.00;98218.41;5157977;27;20146;-60
2023/10/15 03:13:14;;;;;;;5.95;2.15;;;;;;;10.18;100.00;98222.63;5158209;27;20062;-57
2023/10/15 03:15:48;;;;;;;7.80;3.17;;;;;;;10.10;100.00;98224.56;5157880;27;20055;-60
2023/10/15 03:18:21;;;;;;;11.13;2.80;;;;;;;10.06;100.00;98207.34;5158165;27;20073;-57
2023/10/15 03:20:49;;;;;;;13.40;2.90;;;;;;;9.90;100.00;98199.44;5157660;27;20099;-57
2023/10/15 03:23:17;;;;;;;13.95;3.15;;;;;;;9.97;100.00;98197.91;5157890;27;20055;-58
2023/10/15 03:25:43;;;;;;;5.65;2.17;;;;;;;10.01;100.00;98204.97;5157975;27;20123;-58
2023/10/15 03:28:11;;;;;;;17.08;3.55;;;;;;;10.01;100.00;98213.19;5157855;27;20137;-61
2023/10/15 03:30:44;;;;;;;5.25;2.17;;;;;;;10.13;100.00;98215.59;5157813;27;20054;-57
2023/10/15 03:33:11;;;;;;;13.20;3.17;;;;;;;9.93;100.00;98228.00;5157721;27;20469;-58
2023/10/15 03:35:39;;;;;;;8.18;2.70;;;;;;;10.16;100.00;98233.19;5157903;27;20062;-56
2023/10/15 03:38:08;;;;;;;7.47;2.47;;;;;;;10.03;100.00;98249.19;5157553;27;20061;-55
2023/10/15 03:40:44;;;;;;;5.53;1.88;;;;;;;10.14;100.00;98254.72;5157756;27;20078;-58
2023/10/15 03:43:15;;;;;;;5.65;1.80;;;;;;;10.20;100.00;98288.78;5157441;27;20111;-57
2023/10/15 03:45:50;;;;;;;5.47;1.90;;;;;;;10.12;100.00;98307.13;5157892;27;20447;-59
2023/10/15 03:48:18;;;;;;;22.95;4.35;;;;;;;10.02;100.00;98310.56;5158706;27;20050;-56
2023/10/15 03:50:53;;;;;;;8.50;2.17;;;;;;;9.84;100.00;98305.00;5161142;27;20061;-56
2023/10/15 03:53:21;;;;;;;7.82;2.28;;;;;;;9.99;100.00;98285.91;5161286;27;20061;-59
2023/10/15 03:55:49;;;;;;;20.85;4.00;;;;;;;9.93;100.00;98304.66;5161032;27;20046;-59
2023/10/15 03:58:15;;;;;;;6.05;1.45;;;;;;;9.89;100.00;98317.53;5161233;27;20043;-57
2023/10/15 04:00:46;;;;;;;4.90;1.85;;;;;;;9.87;100.00;98315.19;5160840;27;20057;-60
2023/10/15 04:03:18;;;;;;;9.45;2.03;;;;;;;9.80;100.00;98323.34;5161148;27;20145;-59
2023/10/15 04:05:52;;;;;;;11.20;1.65;;;;;;;9.82;100.00;98339.38;5160774;27;20145;-57
2023/10/15 04:08:19;;;;;;;5.57;1.87;;;;;;;9.72;100.00;98353.78;5160912;27;20043;-60
2023/10/15 04:10:54;;;;;;;19.67;2.95;;;;;;;9.71;100.00;98360.41;5160886;27;20046;-57
2023/10/15 04:13:21;;;;;;;8.10;2.13;;;;;;;9.60;100.00;98368.53;5160750;27;20046;-54
2023/10/15 04:15:47;;;;;;;6.65;1.90;;;;;;;9.68;100.00;98369.38;5160969;27;20138;-58
2023/10/15 04:18:12;;;;;;;11.88;2.53;;;;;;;9.41;100.00;98358.59;5160871;27;20141;-61
2023/10/15 04:20:41;;;;;;;8.70;2.58;;;;;;;9.55;100.00;98355.19;5160864;27;20050;-60
2023/10/15 04:23:11;;;;;;;9.13;1.88;;;;;;;9.55;100.00;98360.66;5160560;27;20305;-60
2023/10/15 04:25:37;;;;;;;10.90;3.30;;;;;;;9.56;100.00;98357.56;5160872;27;20042;-59
2023/10/15 04:28:11;;;;;;;14.18;2.38;;;;;;;9.53;100.00;98372.00;5160373;27;20138;-60
2023/10/15 04:30:38;;;;;;;7.97;1.73;;;;;;;9.35;100.00;98371.03;5160796;27;20131;-60
2023/10/15 04:33:10;;;;;;;9.85;2.08;;;;;;;9.33;100.00;98365.13;5160581;27;20079;-57
2023/10/15 04:35:37;;;;;;;5.97;2.13;;;;;;;8.92;100.00;98373.31;5160229;27;20378;-59
2023/10/15 04:38:07;;;;;;;11.75;2.40;;;;;;;9.12;100.00;98352.03;5160558;27;20107;-60
2023/10/15 04:40:47;;;;;;;9.48;2.08;;;;;;;9.01;100.00;98373.81;5160163;27;20320;-59
2023/10/15 04:43:14;;;;;;;7.65;2.08;;;;;;;9.08;100.00;98373.88;5160454;27;20396;-53
2023/10/15 04:45:42;;;;;;;6.18;1.70;;;;;;;8.78;100.00;98371.19;5160188;27;20191;-55
2023/10/15 04:48:13;;;;;;;14.55;2.30;;;;;;;9.07;100.00;98366.84;5160430;27;20428;-57
2023/10/15 04:50:40;;;;;;;6.45;1.50;;;;;;;9.04;100.00;98378.53;5160012;27;20138;-60
2023/10/15 04:53:12;;;;;;;6.05;1.75;;;;;;;9.00;100.00;98379.63;5160376;27;20146;-59
2023/10/15 04:55:38;;;;;;;10.43;2.50;;;;;;;8.99;100.00;98364.41;5159884;27;20055;-55
2023/10/15 04:58:04;;;;;;;8.50;1.63;;;;;;;8.84;100.00;98361.50;5160083;27;20110;-54
2023/10/15 05:00:33;;;;;;;8.27;1.88;;;;;;;9.03;100.00;98363.28;5159345;27;20058;-56
2023/10/15 05:02:59;;;;;;;6.07;2.30;;;;;;;9.05;100.00;98382.03;5159760;27;20373;-58
2023/10/15 05:05:25;;;;;;;8.90;2.10;;;;;;;8.84;100.00;98385.31;5160170;27;20118;-60
2023/10/15 05:07:51;;;;;;;8.73;2.05;;;;;;;8.85;100.00;98363.06;5160136;27;20079;-58
2023/10/15 05:10:17;;;;;;;9.68;1.77;;;;;;;8.76;100.00;98361.78;5160111;27;20094;-58
2023/10/15 05:12:43;;;;;;;7.95;1.88;;;;;;;9.06;100.00;98359.78;5159710;27;20142;-59
2023/10/15 05:15:13;;;;;;;8.13;1.60;;;;;;;8.87;100.00;98377.16;5160113;27;20073;-61
2023/10/15 05:17:42;;;;;;;10.00;2.13;;;;;;;9.21;100.00;98374.41;5159607;27;20392;-55
2023/10/15 05:20:11;;;;;;;9.88;2.53;;;;;;;9.36;100.00;98400.75;5159971;27;20051;-58
2023/10/15 05:22:37;;;;;;;11.68;3.22;;;;;;;9.42;100.00;98421.13;5159686;27;20411;-60
2023/10/15 05:25:04;;;;;;;16.73;3.72;;;;;;;9.64;100.00;98433.09;5159649;27;20055;-60
2023/10/15 05:27:32;;;;;;;10.18;2.38;;;;;;;10.28;100.00;98443.81;5159583;27;20065;-59
2023/10/15 05:29:58;;;;;;;9.23;2.88;;;;;;;11.11;100.00;98494.47;5159324;27;20101;-58
2023/10/15 05:32:24;;;;;;;10.20;2.35;;;;;;;11.72;100.00;98478.97;5159434;27;20058;-59
2023/10/15 05:34:51;;;;;;;5.63;1.60;;;;;;;12.33;100.00;98285.88;5159381;27;20096;-57
2023/10/15 05:37:17;;;;;;;9.18;2.25;;;;;;;12.65;100.00;97936.56;5159609;27;20098;-58
2023/10/15 05:39:43;;;;;;;5.88;1.98;;;;;;;13.09;100.00;97589.00;5159182;27;20141;-59
2023/10/15 05:42:09;;;;;;;7.63;2.22;;;;;;;13.41;100.00;97349.00;5159550;27;20103;-60
2023/10/15 05:44:35;;;;;;;9.85;3.05;;;;;;;14.11;100.00;97206.41;5159161;27;20129;-60
2023/10/15 05:47:01;;;;;;;5.93;2.22;;;;;;;13.76;100.00;97133.78;5159505;27;20491;-60
2023/10/15 05:49:27;;;;;;;14.35;2.55;;;;;;;13.11;100.00;97153.94;5158870;27;20050;-56
2023/10/15 05:51:53;;;;;;;5.25;1.80;;;;;;;12.64;100.00;97157.00;5159212;27;20108;-55
2023/10/15 05:54:20;;;;;;;5.78;1.77;;;;;;;12.57;100.00;97166.19;5158753;27;20405;-56
2023/10/15 05:56:46;;;;;;;8.38;2.20;;;;;;;11.75;100.00;97318.78;5158997;27;20050;-60
2023/10/15 05:59:12;;;;;;;8.75;2.70;;;;;;;11.85;100.00;97400.25;5158955;27;20138;-60
2023/10/15 06:01:38;;;;;;;10.25;2.50;;;;;;;11.70;100.00;97509.47;5158562;27;20475;-61
2023/10/15 06:04:04;;;;;;;14.18;2.85;;;;;;;12.21;100.00;97512.31;5159111;27;20058;-60
2023/10/15 06:06:32;;;;;;;7.78;2.30;;;;;;;12.69;100.00;97443.19;5158806;27;20054;-59
2023/10/15 06:08:59;;;;;;;22.52;6.22;;;;;;;13.36;100.00;97244.13;5158935;27;20078;-54
2023/10/15 06:11:25;;;;;;;8.73;3.00;;;;;;;13.45;100.00;97155.47;5157656;27;20309;-59
2023/10/15 06:13:51;;;;;;;8.52;2.30;;;;;;;13.66;100.00;97152.16;5158871;27;20079;-58
2023/10/15 06:16:18;;;;;;;6.38;2.03;;;;;;;13.92;100.00;97174.28;5158610;27;20089;-58
2023/10/15 06:18:44;;;;;;;10.15;2.40;;;;;;;14.12;100.00;97216.22;5159251;27;20114;-60
2023/10/15 06:21:10;;;;;;;8.20;2.22;;;;;;;13.30;100.00;97180.59;5158664;27;20385;-58
2023/10/15 06:23:36;;;;;;;11.68;3.20;;;;;;;13.33;100.00;97165.22;5158377;27;20438;-55
2023/10/15 06:26:02;;;;;;;12.55;3.97;;;;;;;13.28;100.00;97157.47;5158729;27;20134;-57
2023/10/15 06:28:28;;;;;;;13.65;3.40;;;;;;;12.63;100.00;97145.22;5158554;27;20157;-58
2023/10/15 06:30:54;;;;;;;14.77;2.58;;;;;;;12.46;100.00;97132.63;5158725;27;20058;-56
2023/10/15 06:33:20;;;;;;;11.50;2.20;;;;;;;12.54;100.00;97127.78;5158624;27;20146;-60
2023/10/15 06:35:46;;;;;;;8.32;2.17;;;;;;;12.53;100.00;97127.00;5158615;27;20046;-58
2023/10/15 06:38:12;;;;;;;9.07;3.10;;;;;;;12.37;100.00;97121.47;5158327;27;20043;-59
2023/10/15 06:40:38;;;;;;;15.13;3.58;;;;;;;12.45;100.00;97114.63;5158493;27;20078;-56
2023/10/15 06:43:05;;;;;;;8.45;2.08;;;;;;;12.78;100.00;97137.41;5158178;27;20047;-58
2023/10/15 06:45:32;;;;;;;7.53;2.33;;;;;;;13.04;100.00;97179.63;5158680;27;20042;-59
2023/10/15 06:47:57;;;;;;;4.32;2.10;;;;;;;13.25;100.00;97197.63;5157981;27;20046;-61
2023/10/15 06:50:23;;;;;;;7.85;2.60;;;;;;;13.38;100.00;97211.47;5158214;27;20085;-61
2023/10/15 06:52:49;;;;;;;9.63;2.38;;;;;;;12.84;100.00;97176.19;5158233;27;20137;-60
2023/10/15 06:55:16;;;;;;;10.05;1.65;;;;;;;13.53;100.00;97198.91;5158088;27;20070;-59
2023/10/15 06:57:42;;;;;;;6.93;2.00;;;;;;;12.87;100.00;97203.59;5158344;27;20163;-59
2023/10/15 07:00:10;;;;;;;15.32;3.03;;;;;;;13.11;100.00;97211.69;5158152;27;20042;-57
2023/10/15 07:02:36;;;;;;;4.97;1.95;;;;;;;12.81;100.00;97196.28;5158038;27;20137;-56
2023/10/15 07:05:03;;;;;;;6.78;2.25;;;;;;;14.36;100.00;97271.88;5158039;27;20056;-61
2023/10/15 07:07:30;;;;;;;5.60;2.45;;;;;;;14.94;100.00;97400.72;5158360;27;20133;-59
2023/10/15 07:09:56;;;;;;;9.30;1.85;;;;;;;14.79;100.00;97505.16;5157782;27;20057;-60
2023/10/15 07:12:22;;;;;;;7.43;2.55;;;;;;;15.19;100.00;97568.38;5158276;27;20082;-62
2023/10/15 07:14:49;;;;;;;10.93;2.60;;;;;;;14.71;100.00;97570.00;5157737;27;20051;-61
2023/10/15 07:17:17;;;;;;;7.05;1.95;;;;;;;15.43;100.00;97575.25;5158092;27;20053;-59
2023/10/15 07:19:43;;;;;;;4.65;2.15;;;;;;;14.67;100.00;97569.31;5157896;27;20094;-59
2023/10/15 07:22:09;;;;;;;11.68;2.53;;;;;;;14.04;100.00;97565.56;5157780;27;20047;-59
2023/10/15 07:24:35;;;;;;;8.52;2.53;;;;;;;14.88;100.00;97573.53;5161040;27;20145;-61
2023/10/15 07:27:01;;;;;;;6.20;2.38;;;;;;;13.94;100.00;97607.91;5161446;27;20046;-61
2023/10/15 07:29:28;;;;;;;5.90;1.70;;;;;;;13.98;100.00;97603.09;5161643;27;20050;-59
2023/10/15 07:31:54;;;;;;;6.43;2.13;;;;;;;13.63;100.00;97522.75;5161215;27;20050;-61
2023/10/15 07:34:22;;;;;;;14.05;5.45;;;;;;;13.39;100.00;97486.28;5161455;27;20301;-59
2023/10/15 07:36:50;;;;;;;9.02;3.42;;;;;;;13.46;100.00;97449.56;5161437;27;20050;-58
2023/10/15 07:39:17;;;;;;;8.07;2.08;;;;;;;13.11;100.00;97415.28;5161528;27;20046;-60
2023/10/15 07:41:43;;;;;;;13.77;4.25;;;;;;;12.74;100.00;97408.94;5161240;27;20089;-60
2023/10/15 07:44:10;;;;;;;15.90;3.08;;;;;;;12.59;100.00;97323.19;5161535;27;20129;-58
2023/10/15 07:46:36;;;;;;;9.60;2.22;;;;;;;12.70;100.00;97331.25;5161317;27;20063;-61
2023/10/15 07:49:03;;;;;;;11.55;2.65;;;;;;;12.76;100.00;97331.50;5161186;27;20137;-60
2023/10/15 07:51:30;;;;;;;8.63;2.60;;;;;;;12.72;100.00;97348.84;5161273;27;20102;-57
2023/10/15 07:53:56;;;;;;;21.00;4.13;;;;;;;12.77;100.00;97346.81;5160982;27;20050;-60
2023/10/15 07:56:22;;;;;;;7.22;2.17;;;;;;;12.66;100.00;97303.03;5161299;27;20042;-60
2023/10/15 07:58:48;;;;;;;9.88;2.83;;;;;;;12.15;100.00;97327.16;5160815;27;20065;-61
2023/10/15 08:01:14;;;;;;;13.02;3.25;;;;;;;12.18;100.00;97360.06;5161060;27;20061;-61
2023/10/15 08:03:40;;;;;;;13.80;3.20;;;;;;;12.24;100.00;97322.69;5160835;27;20046;-59
2023/10/15 08:06:07;;;;;;;7.10;2.80;;;;;;;13.50;100.00;97373.19;5161151;27;20047;-57
2023/10/15 08:08:34;;;;;;;12.25;3.08;;;;;;;13.72;100.00;97441.53;5160657;27;20046;-53
2023/10/15 08:11:01;;;;;;;8.40;2.33;;;;;;;13.42;100.00;97556.97;5161022;27;20087;-60
2023/10/15 08:13:27;;;;;;;11.60;4.10;;;;;;;13.50;100.00;97543.09;5160484;27;20332;-57
2023/10/15 08:15:54;;;;;;;10.60;3.80;;;;;;;12.90;100.00;97466.75;5160463;27;20047;-57
2023/10/15 08:18:20;;;;;;;12.93;3.83;;;;;;;13.22;100.00;97451.59;5160747;27;20050;-60
2023/10/15 08:20:46;;;;;;;11.98;1.95;;;;;;;13.19;100.00;97537.75;5160566;27;20134;-58
2023/10/15 08:23:13;;;;;;;8.07;1.92;;;;;;;14.22;100.00;97573.44;5160701;27;20390;-58
2023/10/15 08:25:40;;;;;;;12.38;2.92;;;;;;;14.20;100.00;97624.69;5160523;27;20108;-60
2023/10/15 08:28:07;;;;;;;7.25;2.33;;;;;;;14.55;100.00;97639.69;5161005;27;20137;-60
2023/10/15 08:30:34;;;;;;;6.95;2.08;;;;;;;14.28;100.00;97626.09;5160334;27;20047;-58
2023/10/15 08:33:00;;;;;;;7.72;2.65;;;;;;;13.58;100.00;97630.63;5160706;27;20054;-60
2023/10/15 08:35:26;;;;;;;3.78;1.90;;;;;;;12.99;100.00;97591.94;5159078;27;20046;-62
2023/10/15 08:37:52;;;;;;;9.23;3.63;;;;;;;12.97;100.00;97569.59;5160679;27;20050;-58
2023/10/15 08:40:18;;;;;;;11.60;4.13;;;;;;;12.87;100.00;97565.84;5160282;27;20133;-57
2023/10/15 08:42:51;;;;;;;18.30;6.18;;;;;;;12.64;100.00;97533.63;5160461;27;20082;-57
2023/10/15 08:45:21;;;;;;;16.60;3.95;;;;;;;12.34;100.00;97496.78;5160417;27;20056;-58
2023/10/15 08:47:48;;;;;;;8.60;2.38;;;;;;;12.01;100.00;97477.28;5160412;27;20069;-54
2023/10/15 08:50:16;;;;;;;17.92;5.15;;;;;;;11.99;100.00;97448.66;5160304;27;20072;-58
2023/10/15 08:52:43;;;;;;;11.52;2.60;;;;;;;12.00;100.00;97491.44;5160092;27;20051;-60
2023/10/15 08:55:10;;;;;;;11.65;2.95;;;;;;;11.98;100.00;97493.81;5160319;27;20111;-59
2023/10/15 08:57:37;;;;;;;8.50;2.22;;;;;;;11.35;100.00;97433.84;5159959;27;20146;-60
2023/10/15 09:00:04;;;;;;;8.52;2.15;;;;;;;12.09;100.00;97463.44;5160510;27;20061;-57
2023/10/15 09:02:31;;;;;;;9.02;2.17;;;;;;;12.25;100.00;97486.31;5159664;27;20090;-58
2023/10/15 09:04:57;;;;;;;4.63;1.98;;;;;;;11.98;100.00;97524.00;5160163;27;20130;-58
2023/10/15 09:07:24;;;;;;;9.20;1.58;;;;;;;11.97;100.00;97454.59;5159842;27;20047;-57
2023/10/15 09:09:51;;;;;;;8.65;2.22;;;;;;;12.19;100.00;97467.97;5159564;27;20115;-59
2023/10/15 09:12:18;;;;;;;8.00;2.30;;;;;;;12.06;100.00;97497.22;5160198;27;20066;-59
2023/10/15 09:14:45;;;;;;;7.30;2.33;;;;;;;11.67;100.00;97463.63;5159745;27;20336;-59
2023/10/15 09:17:14;;;;;;;8.35;2.20;;;;;;;11.92;100.00;97433.06;5159813;27;20098;-56
2023/10/15 09:19:41;;;;;;;9.45;2.45;;;;;;;11.43;100.00;97424.34;5159881;27;20051;-55
2023/10/15 09:22:08;;;;;;;11.02;2.70;;;;;;;12.20;100.00;97462.09;5159583;27;20046;-59
2023/10/15 09:24:40;;;;;;;12.52;2.90;;;;;;;12.15;100.00;97454.31;5159642;27;20054;-58
2023/10/15 09:27:07;;;;;;;8.93;1.98;;;;;;;11.91;100.00;97467.22;5159831;27;20157;-54
2023/10/15 09:29:33;;;;;;;9.13;2.05;;;;;;;12.20;100.00;97470.31;5159347;27;20501;-58
2023/10/15 09:32:02;;;;;;;9.48;2.55;;;;;;;11.84;100.00;97439.06;5159712;27;20113;-59
2023/10/15 09:34:29;;;;;;;5.22;1.52;;;;;;;12.18;100.00;97434.25;5159162;27;20046;-59
2023/10/15 09:36:58;;;;;;;8.18;2.28;;;;;;;12.75;100.00;97470.97;5159434;27;20042;-56
2023/10/15 09:39:26;;;;;;;9.70;2.22;;;;;;;12.80;100.00;97489.75;5159479;27;20050;-60
2023/10/15 09:41:53;;;;;;;10.85;2.50;;;;;;;13.33;100.00;97500.97;5159168;27;20107;-56
2023/10/15 09:44:20;;;;;;;9.38;2.83;;;;;;;13.21;100.00;97526.31;5159478;27;20142;-57
2023/10/15 09:46:46;;;;;;;7.05;2.30;;;;;;;13.36;100.00;97542.19;5159058;27;20416;-58
2023/10/15 09:49:13;;;;;;;20.13;3.72;;;;;;;13.28;100.00;97549.00;5159478;27;20137;-60
2023/10/15 09:51:40;;;;;;;6.60;3.00;;;;;;;13.30;100.00;97535.63;5159073;27;20054;-61
2023/10/15 09:54:11;;;;;;;6.80;1.90;;;;;;;13.10;100.00;97535.56;5159372;27;20137;-55
2023/10/15 09:56:40;;;;;;;18.85;7.25;;;;;;;13.34;100.00;97599.63;5158982;27;20062;-60
2023/10/15 09:59:06;;;;;;;5.95;2.55;;;;;;;13.59;100.00;97579.84;5159274;27;20432;-61
2023/10/15 10:01:33;;;;;;;4.60;1.95;;;;;;;13.99;100.00;97629.44;5158720;27;20351;-57
2023/10/15 10:04:40;;;;;;;9.85;2.88;;;;;;;13.86;100.00;97614.75;5158997;27;20061;-59
2023/10/15 10:07:29;;;;;;;16.60;2.58;;;;;;;14.21;100.00;97654.56;5159116;27;20123;-61
2023/10/15 10:10:34;;;;;;;14.38;2.30;;;;;;;14.63;100.00;97682.47;5158607;27;20440;-58
2023/10/15 10:13:18;;;;;;;6.95;1.98;;;;;;;14.03;100.00;97710.06;5159187;27;20080;-60
2023/10/15 10:15:52;;;;;;;7.40;2.20;;;;;;;14.74;100.00;97751.19;5158963;27;20043;-59
2023/10/15 10:18:21;;;;;;;17.75;5.70;;;;;;;14.86;100.00;97747.78;5158634;27;20051;-61
2023/10/15 10:20:48;;;;;;;6.72;2.40;;;;;;;14.19;100.00;97738.88;5158805;27;20442;-56
2023/10/15 10:23:14;;;;;;;9.32;3.72;;;;;;;14.56;100.00;97741.31;5158328;27;20064;-56
2023/10/15 10:25:45;;;;;;;6.88;2.35;;;;;;;14.62;100.00;97738.81;5158894;27;20138;-57
2023/10/15 10:28:13;;;;;;;6.22;2.05;;;;;;;14.88;100.00;97766.66;5158365;27;20197;-62
2023/10/15 10:30:50;;;;;;;16.85;2.22;;;;;;;14.35;100.00;97774.78;5158895;27;20043;-59
2023/10/15 10:33:39;;;;;;;13.82;2.97;;;;;;;14.20;100.00;97768.03;5158885;27;20065;-55
2023/10/15 10:36:11;;;;;;;9.40;2.95;;;;;;;15.59;100.00;97786.31;5158505;27;20095;-61
2023/10/15 10:38:39;;;;;;;11.63;2.25;;;;;;;14.44;100.00;97788.03;5158546;27;20046;-57
2023/10/15 10:41:07;;;;;;;5.72;2.00;;;;;;;14.37;100.00;97775.16;5158214;27;20086;-60
2023/10/15 10:43:33;;;;;;;13.73;3.42;;;;;;;14.04;100.00;97766.72;5158431;27;20427;-55
2023/10/15 10:46:00;;;;;;;10.50;1.83;;;;;;;14.09;100.00;97781.97;5158137;27;20046;-60
2023/10/15 10:48:28;;;;;;;13.52;2.40;;;;;;;14.29;100.00;97777.25;5158605;27;20043;-60
2023/10/15 10:51:18;;;;;;;4.07;1.77;;;;;;;14.39;100.00;97785.75;5158127;27;20052;-60
2023/10/15 10:54:22;;;;;;;7.57;3.40;;;;;;;14.78;100.00;97783.00;5158220;27;20046;-59
2023/10/15 10:57:06;;;;;;;3.72;1.90;;;;;;;14.83;100.00;97784.50;5158432;27;20070;-57
2023/10/15 10:59:33;;;;;;;8.80;2.30;;;;;;;14.48;100.00;97792.25;5157311;27;20046;-60
2023/10/15 11:02:00;;;;;;;10.25;2.58;;;;;;;14.45;100.00;97789.56;5158358;27;20087;-58
2023/10/15 11:04:26;;;;;;;6.35;2.08;;;;;;;13.78;100.00;97784.88;5157825;27;20050;-59
2023/10/15 11:06:52;;;;;;;12.25;2.17;;;;;;;13.76;100.00;97789.25;5158068;27;20266;-60
2023/10/15 11:09:19;;;;;;;6.43;1.85;;;;;;;13.40;100.00;97779.59;5158336;27;20078;-57
2023/10/15 11:11:47;;;;;;;11.23;2.47;;;;;;;13.55;100.00;97780.16;5157726;27;20447;-56
2023/10/15 11:14:13;;;;;;;11.35;3.83;;;;;;;13.68;100.00;97760.28;5157880;27;20138;-57
2023/10/15 11:16:40;;;;;;;7.88;1.92;;;;;;;13.79;100.00;97758.88;5157897;27;20137;-57
2023/10/15 11:19:13;;;;;;;11.25;3.25;;;;;;;13.75;100.00;97749.13;5157957;27;20423;-57
2023/10/15 11:21:40;;;;;;;9.80;3.47;;;;;;;13.65;100.00;97737.88;5157637;27;20050;-60
2023/10/15 11:24:09;;;;;;;14.27;2.05;;;;;;;12.82;100.00;97737.59;5158009;27;20074;-59
2023/10/15 11:26:35;;;;;;;9.15;1.92;;;;;;;12.65;100.00;97746.84;5157627;27;20408;-59
2023/10/15 11:29:01;;;;;;;5.03;1.85;;;;;;;12.69;100.00;97728.34;5158070;27;20047;-57